createdAt,value
2022-07-29T00:00:00.921Z,21.97
2022-07-29T00:02:28.096Z,22.02
2022-07-29T00:04:54.847Z,21.97
2022-07-29T00:07:21.578Z,22.03
2022-07-29T00:09:51.753Z,22.10
2022-07-29T00:12:26.355Z,22.03
2022-07-29T00:14:57.254Z,22.01
2022-07-29T00:17:24.580Z,22.02
2022-07-29T00:19:51.344Z,21.98
2022-07-29T00:22:18.126Z,21.96
2022-07-29T00:24:44.765Z,21.92
2022-07-29T00:27:11.439Z,21.94
2022-07-29T00:29:38.052Z,21.95
2022-07-29T00:32:04.875Z,21.93
2022-07-29T00:34:50.705Z,21.94
2022-07-29T00:37:17.387Z,21.96
2022-07-29T00:39:44.160Z,21.98
2022-07-29T00:42:11.027Z,21.96
2022-07-29T00:44:41.469Z,21.97
2022-07-29T00:47:09.035Z,21.93
2022-07-29T00:49:36.223Z,22.01
2022-07-29T00:52:03.960Z,21.93
2022-07-29T00:54:31.347Z,21.88
2022-07-29T00:57:01.189Z,21.89
2022-07-29T00:59:34.681Z,21.81
2022-07-29T01:02:02.201Z,21.89
2022-07-29T01:04:30.886Z,21.86
2022-07-29T01:06:57.748Z,21.84
2022-07-29T01:09:42.742Z,21.84
2022-07-29T01:12:11.667Z,21.81
2022-07-29T01:14:38.705Z,21.79
2022-07-29T01:17:13.038Z,21.78
2022-07-29T01:19:42.450Z,21.86
2022-07-29T01:22:22.906Z,21.82
2022-07-29T01:25:06.664Z,21.78
2022-07-29T01:27:33.382Z,21.78
2022-07-29T01:30:00.809Z,21.76
2022-07-29T01:32:29.583Z,21.71
2022-07-29T01:34:59.275Z,21.73
2022-07-29T01:37:41.339Z,21.72
2022-07-29T01:40:12.639Z,21.71
2022-07-29T01:42:51.386Z,21.73
2022-07-29T01:45:17.976Z,21.72
2022-07-29T01:48:03.300Z,21.73
2022-07-29T01:50:36.820Z,21.73
2022-07-29T01:53:05.438Z,21.76
2022-07-29T01:55:41.505Z,21.72
2022-07-29T01:58:08.557Z,21.70
2022-07-29T02:00:35.900Z,21.69
2022-07-29T02:03:05.051Z,21.67
2022-07-29T02:05:32.709Z,21.66
2022-07-29T02:08:00.154Z,21.68
2022-07-29T02:10:28.873Z,21.65
2022-07-29T02:12:57.071Z,21.69
2022-07-29T02:15:25.394Z,21.73
2022-07-29T02:17:55.271Z,21.63
2022-07-29T02:20:23.382Z,21.65
2022-07-29T02:22:51.526Z,21.62
2022-07-29T02:25:19.005Z,21.73
2022-07-29T02:27:46.022Z,21.62
2022-07-29T02:30:13.587Z,21.62
2022-07-29T02:32:41.125Z,21.71
2022-07-29T02:35:09.177Z,21.62
2022-07-29T02:37:37.565Z,21.60
2022-07-29T02:40:05.009Z,21.59
2022-07-29T02:42:32.414Z,21.61
2022-07-29T02:44:59.261Z,21.56
2022-07-29T02:47:31.823Z,21.62
2022-07-29T02:50:20.952Z,21.56
2022-07-29T02:52:50.325Z,21.52
2022-07-29T02:55:27.379Z,21.53
2022-07-29T02:58:12.944Z,21.55
2022-07-29T03:00:41.583Z,21.54
2022-07-29T03:03:10.253Z,21.52
2022-07-29T03:05:36.895Z,21.50
2022-07-29T03:08:06.669Z,21.56
2022-07-29T03:10:34.277Z,21.60
2022-07-29T03:13:01.405Z,21.54
2022-07-29T03:15:28.542Z,21.52
2022-07-29T03:17:56.788Z,21.49
2022-07-29T03:20:23.967Z,21.49
2022-07-29T03:22:51.305Z,21.48
2022-07-29T03:25:19.125Z,21.45
2022-07-29T03:27:46.734Z,21.45
2022-07-29T03:30:18.364Z,21.47
2022-07-29T03:32:48.695Z,21.42
2022-07-29T03:35:17.682Z,21.40
2022-07-29T03:37:45.253Z,21.40
2022-07-29T03:40:14.951Z,21.37
2022-07-29T03:42:43.550Z,21.35
2022-07-29T03:45:12.272Z,21.37
2022-07-29T03:47:50.134Z,21.35
2022-07-29T03:50:20.554Z,21.33
2022-07-29T03:52:48.086Z,21.35
2022-07-29T03:55:15.346Z,21.32
2022-07-29T03:57:42.855Z,21.32
2022-07-29T04:00:10.073Z,21.31
2022-07-29T04:02:37.158Z,21.32
2022-07-29T04:05:03.966Z,21.29
2022-07-29T04:07:31.111Z,21.32
2022-07-29T04:09:58.072Z,21.31
2022-07-29T04:12:26.013Z,21.29
2022-07-29T04:14:52.887Z,21.30
2022-07-29T04:17:19.855Z,21.27
2022-07-29T04:19:46.658Z,21.21
2022-07-29T04:22:13.448Z,21.27
2022-07-29T04:24:43.978Z,21.24
2022-07-29T04:27:11.277Z,21.24
2022-07-29T04:29:38.115Z,21.26
2022-07-29T04:32:24.043Z,21.23
2022-07-29T04:34:50.893Z,21.23
2022-07-29T04:37:17.763Z,21.21
2022-07-29T04:39:44.772Z,21.22
2022-07-29T04:42:11.584Z,21.20
2022-07-29T04:44:39.628Z,21.19
2022-07-29T04:47:10.114Z,21.18
2022-07-29T04:49:39.149Z,21.17
2022-07-29T04:52:06.310Z,21.19
2022-07-29T04:54:33.027Z,21.20
2022-07-29T04:56:59.902Z,21.20
2022-07-29T04:59:27.966Z,21.15
2022-07-29T05:01:54.909Z,21.18
2022-07-29T05:04:21.734Z,21.16
2022-07-29T05:06:48.977Z,21.13
2022-07-29T05:09:15.715Z,21.11
2022-07-29T05:11:42.420Z,21.13
2022-07-29T05:14:09.187Z,21.11
2022-07-29T05:16:36.405Z,21.11
2022-07-29T05:19:04.305Z,21.13
2022-07-29T05:21:31.016Z,21.13
2022-07-29T05:23:57.695Z,21.12
2022-07-29T05:26:24.409Z,21.10
2022-07-29T05:28:51.126Z,21.13
2022-07-29T05:31:18.107Z,21.11
2022-07-29T05:33:47.391Z,21.09
2022-07-29T05:36:14.154Z,21.09
2022-07-29T05:38:40.789Z,21.12
2022-07-29T05:41:07.923Z,21.15
2022-07-29T05:43:35.023Z,21.11
2022-07-29T05:46:02.054Z,21.13
2022-07-29T05:48:29.132Z,21.15
2022-07-29T05:50:56.043Z,21.12
2022-07-29T05:53:22.754Z,21.14
2022-07-29T05:55:50.096Z,21.13
2022-07-29T05:58:17.161Z,21.12
2022-07-29T06:00:44.013Z,21.12
2022-07-29T06:03:10.779Z,21.09
2022-07-29T06:05:37.485Z,21.13
2022-07-29T06:08:06.879Z,21.16
2022-07-29T06:10:34.030Z,21.15
2022-07-29T06:13:00.703Z,21.15
2022-07-29T06:15:27.684Z,21.13
2022-07-29T06:17:59.030Z,21.13
2022-07-29T06:20:30.906Z,21.15
2022-07-29T06:22:58.494Z,21.18
2022-07-29T06:25:25.191Z,21.15
2022-07-29T06:27:52.227Z,21.33
2022-07-29T06:30:19.236Z,21.21
2022-07-29T06:32:45.971Z,21.21
2022-07-29T06:35:37.638Z,21.22
2022-07-29T06:38:00.057Z,21.21
2022-07-29T06:40:45.713Z,21.23
2022-07-29T06:43:12.637Z,21.26
2022-07-29T06:45:42.692Z,21.20
2022-07-29T06:48:10.319Z,21.24
2022-07-29T06:50:37.234Z,21.20
2022-07-29T06:53:04.217Z,21.26
2022-07-29T06:55:31.171Z,21.24
2022-07-29T06:57:57.976Z,21.19
2022-07-29T07:00:25.288Z,21.21
2022-07-29T07:02:52.564Z,21.24
2022-07-29T07:05:19.456Z,21.24
2022-07-29T07:07:46.094Z,21.26
2022-07-29T07:10:12.810Z,21.27
2022-07-29T07:12:39.486Z,21.26
2022-07-29T07:15:06.964Z,21.28
2022-07-29T07:17:33.695Z,21.28
2022-07-29T07:20:00.770Z,21.27
2022-07-29T07:22:27.936Z,21.34
2022-07-29T07:24:54.722Z,21.32
2022-07-29T07:27:21.384Z,21.45
2022-07-29T07:29:48.131Z,21.44
2022-07-29T07:32:17.581Z,21.40
2022-07-29T07:34:45.006Z,21.54
2022-07-29T07:37:11.744Z,21.46
2022-07-29T07:39:38.465Z,21.42
2022-07-29T07:42:05.252Z,21.38
2022-07-29T07:44:32.150Z,21.52
2022-07-29T07:47:03.937Z,21.37
2022-07-29T07:49:35.596Z,21.47
2022-07-29T07:52:02.375Z,21.40
2022-07-29T07:54:29.131Z,21.42
2022-07-29T07:56:56.096Z,21.43
2022-07-29T07:59:22.898Z,21.42
2022-07-29T08:01:55.647Z,21.42
2022-07-29T08:04:28.156Z,21.40
2022-07-29T08:06:56.348Z,21.40
2022-07-29T08:09:31.048Z,21.37
2022-07-29T08:11:59.136Z,21.41
2022-07-29T08:14:25.869Z,21.42
2022-07-29T08:16:52.654Z,21.44
2022-07-29T08:19:19.550Z,21.44
2022-07-29T08:21:46.442Z,21.42
2022-07-29T08:24:31.509Z,21.47
2022-07-29T08:26:58.759Z,21.46
2022-07-29T08:29:25.806Z,21.47
2022-07-29T08:31:52.897Z,21.49
2022-07-29T08:34:26.909Z,21.53
2022-07-29T08:36:54.912Z,21.50
2022-07-29T08:39:21.738Z,21.46
2022-07-29T08:41:57.467Z,21.49
2022-07-29T08:44:31.055Z,21.49
2022-07-29T08:46:58.436Z,21.52
2022-07-29T08:49:25.379Z,21.52
2022-07-29T08:51:53.146Z,21.60
2022-07-29T08:54:20.330Z,21.56
2022-07-29T08:56:50.444Z,21.53
2022-07-29T08:59:18.720Z,21.53
2022-07-29T09:01:48.280Z,21.53
2022-07-29T09:04:16.349Z,21.50
2022-07-29T09:06:48.746Z,21.53
2022-07-29T09:09:15.864Z,21.58
2022-07-29T09:11:43.634Z,21.55
2022-07-29T09:14:12.655Z,21.59
2022-07-29T09:17:05.895Z,21.60
2022-07-29T09:19:38.142Z,21.64
2022-07-29T09:22:06.601Z,21.65
2022-07-29T09:24:36.414Z,21.65
2022-07-29T09:27:03.602Z,21.67
2022-07-29T09:29:34.447Z,21.69
2022-07-29T09:32:07.098Z,21.74
2022-07-29T09:34:33.917Z,21.71
2022-07-29T09:37:00.828Z,21.78
2022-07-29T09:39:32.098Z,21.76
2022-07-29T09:42:00.778Z,21.75
2022-07-29T09:44:27.519Z,21.78
2022-07-29T09:46:59.363Z,21.80
2022-07-29T09:49:26.580Z,21.81
2022-07-29T09:52:05.328Z,21.82
2022-07-29T09:54:38.119Z,21.87
2022-07-29T09:57:06.031Z,21.89
2022-07-29T09:59:32.892Z,21.93
2022-07-29T10:01:59.919Z,21.96
2022-07-29T10:04:40.688Z,22.01
2022-07-29T10:07:07.920Z,22.04
2022-07-29T10:09:35.250Z,22.07
2022-07-29T10:12:12.315Z,22.11
2022-07-29T10:14:39.736Z,22.14
2022-07-29T10:17:07.456Z,22.16
2022-07-29T10:19:34.913Z,22.22
2022-07-29T10:22:03.296Z,22.26
2022-07-29T10:24:30.869Z,22.27
2022-07-29T10:26:58.710Z,22.30
2022-07-29T10:29:26.301Z,22.33
2022-07-29T10:31:59.225Z,22.36
2022-07-29T10:34:32.611Z,22.39
2022-07-29T10:37:13.731Z,22.40
2022-07-29T10:40:02.115Z,22.42
2022-07-29T10:42:34.579Z,22.47
2022-07-29T10:45:04.320Z,22.54
2022-07-29T10:47:31.582Z,22.56
2022-07-29T10:50:03.987Z,22.54
2022-07-29T10:52:49.169Z,22.58
2022-07-29T10:55:35.785Z,22.63
2022-07-29T10:58:13.534Z,22.65
2022-07-29T11:00:40.385Z,22.66
2022-07-29T11:03:10.530Z,22.72
2022-07-29T11:05:54.707Z,22.74
2022-07-29T11:08:25.991Z,22.72
2022-07-29T11:10:54.800Z,22.75
2022-07-29T11:13:41.459Z,22.75
2022-07-29T11:16:09.430Z,22.78
2022-07-29T11:18:37.946Z,22.76
2022-07-29T11:21:26.703Z,22.80
2022-07-29T11:24:14.893Z,22.82
2022-07-29T11:27:13.369Z,22.83
2022-07-29T11:29:51.016Z,22.86
2022-07-29T11:35:37.315Z,22.94
2022-07-29T11:38:27.906Z,22.90
2022-07-29T11:41:13.460Z,22.85
2022-07-29T11:44:03.056Z,22.86
2022-07-29T11:46:50.174Z,22.86
2022-07-29T11:52:08.378Z,22.93
2022-07-29T11:54:58.211Z,22.97
2022-07-29T11:57:36.113Z,23.01
2022-07-29T12:00:09.942Z,23.05
2022-07-29T12:02:40.889Z,23.03
2022-07-29T12:05:10.833Z,22.99
2022-07-29T12:07:38.815Z,22.98
2022-07-29T12:10:06.430Z,23.00
2022-07-29T12:12:33.694Z,23.03
2022-07-29T12:15:15.131Z,23.03
2022-07-29T12:17:42.240Z,23.03
2022-07-29T12:20:10.102Z,23.01
2022-07-29T12:22:42.087Z,23.06
2022-07-29T12:25:32.619Z,23.09
2022-07-29T12:28:02.583Z,23.05
2022-07-29T12:30:36.812Z,23.09
2022-07-29T12:33:11.228Z,23.08
2022-07-29T12:35:38.090Z,23.08
2022-07-29T12:38:05.195Z,23.10
2022-07-29T12:40:32.320Z,23.11
2022-07-29T12:43:12.549Z,23.14
2022-07-29T12:45:40.425Z,23.19
2022-07-29T12:48:09.997Z,23.21
2022-07-29T12:50:38.148Z,23.25
2022-07-29T12:53:12.398Z,23.18
2022-07-29T12:55:40.166Z,23.19
2022-07-29T12:58:06.812Z,23.17
2022-07-29T13:00:33.586Z,23.14
2022-07-29T13:03:02.090Z,23.15
2022-07-29T13:05:49.126Z,23.11
2022-07-29T13:08:20.371Z,23.06
2022-07-29T13:10:49.959Z,23.09
2022-07-29T13:13:17.007Z,23.07
2022-07-29T13:15:45.366Z,23.11
2022-07-29T13:18:31.362Z,23.10
2022-07-29T13:20:58.741Z,23.13
2022-07-29T13:23:25.531Z,23.13
2022-07-29T13:25:52.399Z,23.15
2022-07-29T13:28:22.655Z,23.17
2022-07-29T13:30:49.390Z,23.16
2022-07-29T13:33:16.406Z,23.17
2022-07-29T13:35:43.107Z,23.18
2022-07-29T13:38:09.832Z,23.17
2022-07-29T13:40:36.681Z,23.22
2022-07-29T13:43:03.472Z,23.24
2022-07-29T13:45:31.299Z,23.26
2022-07-29T13:47:58.485Z,23.24
2022-07-29T13:50:25.166Z,23.22
2022-07-29T13:52:52.409Z,23.18
2022-07-29T13:55:19.163Z,23.20
2022-07-29T13:57:45.828Z,23.15
2022-07-29T14:00:13.481Z,23.16
2022-07-29T14:02:40.174Z,23.14
2022-07-29T14:05:08.653Z,23.14
2022-07-29T14:07:35.747Z,23.12
2022-07-29T14:10:02.475Z,23.16
2022-07-29T14:12:29.173Z,23.18
2022-07-29T14:14:55.857Z,23.23
2022-07-29T14:17:23.007Z,23.22
2022-07-29T14:19:50.005Z,23.23
2022-07-29T14:22:16.701Z,23.25
2022-07-29T14:24:43.356Z,23.30
2022-07-29T14:27:10.206Z,23.31
2022-07-29T14:29:38.786Z,23.32
2022-07-29T14:32:09.369Z,23.34
2022-07-29T14:34:36.510Z,23.31
2022-07-29T14:37:04.050Z,23.34
2022-07-29T14:39:31.714Z,23.32
2022-07-29T14:41:59.405Z,23.29
2022-07-29T14:44:32.469Z,23.30
2022-07-29T14:47:07.815Z,23.29
2022-07-29T14:49:34.832Z,23.25
2022-07-29T14:52:01.918Z,23.23
2022-07-29T14:54:28.610Z,23.24
2022-07-29T14:56:58.774Z,23.25
2022-07-29T14:59:26.134Z,23.24
2022-07-29T15:01:52.961Z,23.28
2022-07-29T15:04:19.662Z,23.33
2022-07-29T15:06:46.761Z,23.35
2022-07-29T15:09:13.463Z,23.35
2022-07-29T15:11:40.163Z,23.36
2022-07-29T15:14:07.166Z,23.35
2022-07-29T15:16:34.379Z,23.36
2022-07-29T15:19:02.115Z,23.32
2022-07-29T15:21:28.911Z,23.33
2022-07-29T15:24:02.517Z,23.35
2022-07-29T15:26:29.557Z,23.40
2022-07-29T15:28:59.118Z,23.39
2022-07-29T15:31:30.652Z,23.39
2022-07-29T15:34:05.037Z,23.32
2022-07-29T15:36:51.467Z,23.35
2022-07-29T15:39:19.501Z,23.32
2022-07-29T15:41:47.900Z,23.33
2022-07-29T15:44:14.763Z,23.32
2022-07-29T15:47:01.442Z,23.30
2022-07-29T15:49:47.583Z,23.30
2022-07-29T15:52:24.783Z,23.27
2022-07-29T15:54:52.413Z,23.30
2022-07-29T15:57:19.691Z,23.28
2022-07-29T15:59:46.530Z,23.27
2022-07-29T16:02:13.386Z,23.26
2022-07-29T16:04:40.106Z,23.24
2022-07-29T16:07:07.795Z,23.24
2022-07-29T16:09:34.673Z,23.22
2022-07-29T16:12:01.433Z,23.21
2022-07-29T16:14:28.885Z,23.22
2022-07-29T16:16:56.443Z,23.19
2022-07-29T16:19:23.789Z,23.18
2022-07-29T16:21:50.614Z,23.18
2022-07-29T16:24:17.378Z,23.17
2022-07-29T16:26:44.054Z,23.19
2022-07-29T16:29:10.997Z,23.18
2022-07-29T16:31:38.390Z,23.24
2022-07-29T16:34:08.160Z,23.22
2022-07-29T16:36:35.049Z,23.22
2022-07-29T16:39:01.842Z,23.22
2022-07-29T16:41:30.245Z,23.22
2022-07-29T16:44:04.005Z,23.23
2022-07-29T16:46:30.763Z,23.20
2022-07-29T16:48:58.118Z,23.20
2022-07-29T16:51:26.248Z,23.20
2022-07-29T16:53:57.145Z,23.23
2022-07-29T16:56:26.231Z,23.28
2022-07-29T16:58:58.897Z,23.31
2022-07-29T17:01:29.640Z,23.34
2022-07-29T17:04:13.122Z,23.34
2022-07-29T17:06:41.168Z,23.34
2022-07-29T17:09:09.504Z,23.36
2022-07-29T17:11:56.123Z,23.39
2022-07-29T17:14:27.396Z,23.38
2022-07-29T17:17:00.170Z,23.38
2022-07-29T17:19:28.812Z,23.40
2022-07-29T17:22:03.255Z,23.39
2022-07-29T17:24:34.077Z,23.38
2022-07-29T17:27:01.199Z,23.35
2022-07-29T17:29:27.993Z,23.35
2022-07-29T17:31:54.913Z,23.36
2022-07-29T17:34:21.856Z,23.33
2022-07-29T17:36:49.202Z,23.32
2022-07-29T17:39:15.968Z,23.34
2022-07-29T17:41:44.033Z,23.33
2022-07-29T17:44:14.786Z,23.32
2022-07-29T17:46:41.633Z,23.31
2022-07-29T17:49:08.565Z,23.30
2022-07-29T17:51:35.269Z,23.29
2022-07-29T17:54:01.970Z,23.29
2022-07-29T17:56:28.948Z,23.29
2022-07-29T17:58:56.530Z,23.30
2022-07-29T18:01:23.861Z,23.30
2022-07-29T18:04:00.212Z,23.31
2022-07-29T18:06:27.152Z,23.31
2022-07-29T18:08:53.941Z,23.31
2022-07-29T18:11:20.934Z,23.32
2022-07-29T18:13:56.607Z,23.31
2022-07-29T18:16:23.388Z,23.32
2022-07-29T18:18:50.190Z,23.32
2022-07-29T18:21:17.004Z,23.31
2022-07-29T18:24:04.050Z,23.31
2022-07-29T18:26:30.992Z,23.32
2022-07-29T18:28:57.638Z,23.32
2022-07-29T18:31:24.483Z,23.33
2022-07-29T18:33:59.955Z,23.34
2022-07-29T18:36:26.929Z,23.34
2022-07-29T18:38:53.614Z,23.34
2022-07-29T18:41:23.529Z,23.34
2022-07-29T18:43:57.495Z,23.36
2022-07-29T18:46:30.304Z,23.40
2022-07-29T18:48:58.057Z,23.41
2022-07-29T18:51:24.747Z,23.41
2022-07-29T18:53:55.771Z,23.40
2022-07-29T18:56:22.509Z,23.41
2022-07-29T18:58:49.155Z,23.41
2022-07-29T19:01:21.386Z,23.42
2022-07-29T19:03:56.540Z,23.42
2022-07-29T19:06:25.774Z,23.41
2022-07-29T19:08:58.880Z,23.42
2022-07-29T19:11:25.588Z,23.39
2022-07-29T19:13:53.695Z,23.39
2022-07-29T19:16:20.403Z,23.38
2022-07-29T19:18:47.653Z,23.36
2022-07-29T19:21:14.362Z,23.36
2022-07-29T19:24:00.721Z,23.35
2022-07-29T19:26:29.439Z,23.34
2022-07-29T19:28:56.773Z,23.33
2022-07-29T19:31:25.796Z,23.33
2022-07-29T19:34:02.570Z,23.33
2022-07-29T19:36:31.200Z,23.32
2022-07-29T19:38:59.537Z,23.32
2022-07-29T19:41:27.774Z,23.31
2022-07-29T19:44:00.062Z,23.31
2022-07-29T19:46:29.707Z,23.31
2022-07-29T19:48:57.391Z,23.31
2022-07-29T19:51:24.825Z,23.30
2022-07-29T19:54:00.948Z,23.29
2022-07-29T19:56:30.161Z,23.30
2022-07-29T19:58:57.429Z,23.30
2022-07-29T20:01:25.032Z,23.36
2022-07-29T20:03:55.999Z,23.39
2022-07-29T20:06:23.392Z,23.35
2022-07-29T20:08:50.165Z,23.34
2022-07-29T20:11:17.383Z,23.32
2022-07-29T20:13:44.183Z,23.30
2022-07-29T20:16:11.026Z,23.31
2022-07-29T20:18:37.718Z,23.31
2022-07-29T20:21:04.895Z,23.29
2022-07-29T20:23:33.443Z,23.29
2022-07-29T20:26:00.436Z,23.29
2022-07-29T20:28:27.232Z,23.28
2022-07-29T20:30:53.978Z,23.27
2022-07-29T20:33:20.716Z,23.27
2022-07-29T20:35:47.577Z,23.27
2022-07-29T20:38:18.171Z,23.27
2022-07-29T20:40:45.548Z,23.29
2022-07-29T20:43:12.230Z,23.28
2022-07-29T20:45:39.744Z,23.25
2022-07-29T20:48:07.085Z,23.25
2022-07-29T20:50:35.157Z,23.26
2022-07-29T20:53:01.781Z,23.33
2022-07-29T20:55:28.561Z,23.29
2022-07-29T20:57:55.374Z,23.29
2022-07-29T21:00:22.149Z,23.26
2022-07-29T21:02:48.968Z,23.25
2022-07-29T21:05:16.087Z,23.31
2022-07-29T21:07:42.921Z,23.28
2022-07-29T21:10:09.810Z,23.29
2022-07-29T21:12:36.596Z,23.29
2022-07-29T21:15:06.797Z,23.32
2022-07-29T21:17:39.139Z,23.33
2022-07-29T21:20:08.887Z,23.28
2022-07-29T21:22:43.086Z,23.26
2022-07-29T21:25:10.965Z,23.33
2022-07-29T21:27:56.302Z,23.27
2022-07-29T21:30:23.279Z,23.27
2022-07-29T21:32:50.087Z,23.30
2022-07-29T21:35:31.380Z,23.25
2022-07-29T21:38:03.787Z,23.30
2022-07-29T21:40:30.670Z,23.31
2022-07-29T21:42:57.419Z,23.34
2022-07-29T21:45:24.115Z,23.31
2022-07-29T21:47:50.849Z,23.28
2022-07-29T21:50:19.158Z,23.29
2022-07-29T21:52:45.861Z,23.27
2022-07-29T21:55:12.609Z,23.22
2022-07-29T21:57:39.412Z,23.23
2022-07-29T22:00:06.638Z,23.27
2022-07-29T22:02:33.534Z,23.25
2022-07-29T22:05:00.291Z,23.22
2022-07-29T22:07:55.420Z,23.24
2022-07-29T22:10:13.715Z,23.22
2022-07-29T22:12:40.445Z,23.24
2022-07-29T22:15:07.788Z,23.24
2022-07-29T22:17:34.687Z,23.22
2022-07-29T22:20:01.389Z,23.24
2022-07-29T22:22:28.077Z,23.28
2022-07-29T22:24:55.989Z,23.29
2022-07-29T22:27:22.995Z,23.26
2022-07-29T22:29:49.712Z,23.25
2022-07-29T22:32:16.393Z,23.15
2022-07-29T22:34:43.045Z,23.17
2022-07-29T22:37:09.737Z,23.11
2022-07-29T22:39:36.524Z,23.14
2022-07-29T22:42:03.210Z,23.10
2022-07-29T22:44:29.927Z,23.17
2022-07-29T22:46:56.888Z,23.15
2022-07-29T22:49:24.070Z,23.15
2022-07-29T22:51:50.925Z,23.12
2022-07-29T22:54:17.787Z,23.16
2022-07-29T22:56:44.504Z,23.18
2022-07-29T22:59:11.223Z,23.15
2022-07-29T23:01:38.353Z,23.11
2022-07-29T23:04:05.695Z,23.03
2022-07-29T23:06:32.566Z,23.03
2022-07-29T23:08:59.279Z,23.12
2022-07-29T23:11:25.977Z,23.08
2022-07-29T23:13:54.315Z,23.08
2022-07-29T23:16:26.507Z,23.06
2022-07-29T23:18:54.080Z,23.10
2022-07-29T23:21:21.130Z,23.08
2022-07-29T23:23:53.701Z,23.10
2022-07-29T23:26:20.438Z,23.05
2022-07-29T23:28:47.173Z,23.11
2022-07-29T23:31:13.895Z,23.04
2022-07-29T23:33:41.104Z,23.09
2022-07-29T23:36:07.884Z,23.06
2022-07-29T23:38:34.666Z,23.08
2022-07-29T23:41:02.476Z,23.01
2022-07-29T23:43:29.153Z,23.04
2022-07-29T23:45:56.161Z,23.08
2022-07-29T23:48:24.962Z,23.02
2022-07-29T23:50:51.891Z,23.04
2022-07-29T23:53:18.679Z,23.01
2022-07-29T23:55:45.344Z,23.02
2022-07-29T23:58:12.050Z,23.02
